Schofield, Hawaii
Current Conditions -  °F | °C
As of 4:58 AM on Friday 24 Oct 2014 (Local Time) from PHHI Reporting Station
Scattered Clouds Scattered Clouds  
Wind Chill: 72°   Ceiling: Unl
Heat Index: 72°   Visibility: 10mi
Dew Point: 67°   Wind: 5mph
Humidity: 84%   Direction: 20°NNE
Pressure: 30.01"   Gusts: NA
Location:  21.4794°N, 158.1°W
Report Text: PHHI 241458Z 02004KT 10SM SCT020 22/19 A3001 RMK AO2A DZB1356E1413 SLP152 P0000 60002 T02220194 55008 $
Loading
Personal Weather Stations






























Interactive Weather Map
Tropical Storm Tracking
New forecast layout! Learn more

10-Day Weather Forecast

Advertisements
Track Severe Weather on mobile